< < Back
Terminal Aerodrome Forecast


Current Version              Previous Versions:   1  2  3  4  5  6  7  8  9  

Terminal Aerodrome Forecast

317
FTUS42 KCHS 192300
TAFSAV
TAF
KSAV 192322Z 2000/2024 00000KT P6SM SCT080 BKN120
     FM200900 VRB03KT P6SM -RA SCT035 BKN070
     FM201300 01006KT 6SM -RA BR SCT008 OVC020
     FM201600 36004KT P6SM SCT020 BKN045=

Latest METAR

482
SAUS80 KWBC 200100
MTRSAV
METAR KSAV 200053Z 11004KT 10SM SCT150 BKN250 11/06 A3012 RMK AO2 SLP198
T01060061


USA.gov is the U.S. government's official web portal to all federal, state and local government web resources and services.